Terminal Aerodrome Forecast
Issued by NWS

Home | Current Version | Previous Version | Text Only | Print | Product List | Glossary On
Versions: 1 2 3 4 5 6 7 8 9 10 11 12 13 14 15 16
000
FTUS43 KDTX 211319 AAA
TAFDET
TAF AMD
KDET 211319Z 2113/2212 02007KT P6SM BKN250
     FM212000 10008KT P6SM SCT250
     FM220100 15004KT P6SM SCT250
     FM220600 VRB03KT P6SM BKN150
     FM221000 11003KT P6SM -SHRA BKN050 OVC080 PROB30 2210/2212 3SM
      TSRA SCT035CB BKN050=

USA.gov is the U.S. government's official web portal to all federal, state and local government web resources and services.